首页
METAR-TAF:

METAR-TAF

机场 :

瓦岱國際機場

永珍, 老挝

纬度: 17-57N, 经度: 102-34E, 海拔: 171米

当前天气观测

该预报发布于36分钟前的23:00 UTC
风速2节,风向东北
温度
气压 1015 hPa
能見度: 6000
散云层高于5000英尺

METAR: VLVT 142300Z 04002KT 6000 SCT050 222/18 Q1015 NOSIG

时间: 06:36 (23:36 UTC)

预报

该预报发布于6小时和36分钟前的17:00 UTC
预报有效从14日的 18点(UTC)到 15日的 18点(UTC)
风速8节,风向东转东北
能见度10公里或以上
少量云层高于2000英尺
散云层高于5000英尺
短暂存在
从 14日的 18点(UTC)到 14日的 23点(UTC)
能見度: 4000
散云层高于5000英尺
轻雾

TAF: VLVT 141700Z 1418/1518 06008KT 9999 FEW020 SCT050 TEMPO 1418/1423 4000 BR SCT050

超过4000个机场的气象观测和天气预报(METAR&TAF报告)。

可查询的气象台以黄色和红色小点在地图上表示。

将鼠标移到小点上方,可查看气象台名称。

然后点击查看天气观测和预报。

如需切换地图:点击带黑十字的绿色按钮放大地图;点击带横线的绿色按钮缩小地图;或者点击绿色箭头查看邻近地区的地图。


METAR-TAF: